createdAt,value
2019-02-10T00:00:08.993Z,929.11
2019-02-10T00:01:08.873Z,929.14
2019-02-10T00:02:08.868Z,929.13
2019-02-10T00:03:08.885Z,929.13
2019-02-10T00:04:08.899Z,929.11
2019-02-10T00:05:09.127Z,929.10
2019-02-10T00:06:08.929Z,929.10
2019-02-10T00:07:08.936Z,929.11
2019-02-10T00:08:09.075Z,929.11
2019-02-10T00:09:09.102Z,929.11
2019-02-10T00:10:09.257Z,929.12
2019-02-10T00:11:09.012Z,929.12
2019-02-10T00:12:09.031Z,929.15
2019-02-10T00:13:09.042Z,929.16
2019-02-10T00:14:09.046Z,929.15
2019-02-10T00:15:09.243Z,929.15
2019-02-10T00:16:09.206Z,929.19
2019-02-10T00:17:09.087Z,929.19
2019-02-10T00:18:09.246Z,929.21
2019-02-10T00:19:09.249Z,929.20
2019-02-10T00:20:09.364Z,929.24
2019-02-10T00:21:09.278Z,929.27
2019-02-10T00:22:09.192Z,929.27
2019-02-10T00:23:09.197Z,929.25
2019-02-10T00:24:09.223Z,929.33
2019-02-10T00:25:09.322Z,929.32
2019-02-10T00:26:09.240Z,929.35
2019-02-10T00:27:09.263Z,929.33
2019-02-10T00:28:09.283Z,929.35
2019-02-10T00:29:09.407Z,929.34
2019-02-10T00:30:09.571Z,929.36
2019-02-10T00:31:09.329Z,929.36
2019-02-10T00:32:09.461Z,929.33
2019-02-10T00:33:09.414Z,929.31
2019-02-10T00:34:09.381Z,929.34
2019-02-10T00:35:09.534Z,929.37
2019-02-10T00:36:09.403Z,929.28
2019-02-10T00:37:09.413Z,929.30
2019-02-10T00:38:09.547Z,929.24
2019-02-10T00:39:09.575Z,929.24
2019-02-10T00:40:09.686Z,929.24
2019-02-10T00:41:09.525Z,929.20
2019-02-10T00:42:09.547Z,929.17
2019-02-10T00:43:09.535Z,929.18
2019-02-10T00:44:09.538Z,929.17
2019-02-10T00:45:09.693Z,929.15
2019-02-10T00:46:09.677Z,929.15
2019-02-10T00:47:09.573Z,929.15
2019-02-10T00:48:09.711Z,929.17
2019-02-10T00:49:09.722Z,929.20
2019-02-10T00:50:09.765Z,929.17
2019-02-10T00:51:09.644Z,929.15
2019-02-10T00:52:09.769Z,929.16
2019-02-10T00:53:09.787Z,929.17
2019-02-10T00:54:09.670Z,929.09
2019-02-10T00:55:09.916Z,929.10
2019-02-10T00:56:09.840Z,929.09
2019-02-10T00:57:09.744Z,929.06
2019-02-10T00:58:09.765Z,929.07
2019-02-10T00:59:09.779Z,929.07
2019-02-10T01:00:09.872Z,929.04
2019-02-10T01:01:09.908Z,929.09
2019-02-10T01:02:09.829Z,929.08
2019-02-10T01:03:09.938Z,929.08
2019-02-10T01:04:09.841Z,929.09
2019-02-10T01:05:09.961Z,929.06
2019-02-10T01:06:09.872Z,929.10
2019-02-10T01:07:09.910Z,929.09
2019-02-10T01:08:09.901Z,929.11
2019-02-10T01:09:09.981Z,929.11
2019-02-10T01:10:10.082Z,929.12
2019-02-10T01:11:09.955Z,929.09
2019-02-10T01:12:10.081Z,929.09
2019-02-10T01:13:10.104Z,929.08
2019-02-10T01:14:10.112Z,929.08
2019-02-10T01:15:10.224Z,929.06
2019-02-10T01:16:10.154Z,929.11
2019-02-10T01:17:10.163Z,929.10
2019-02-10T01:18:10.060Z,929.13
2019-02-10T01:19:10.075Z,929.13
2019-02-10T01:20:10.203Z,929.14
2019-02-10T01:21:10.119Z,929.18
2019-02-10T01:22:10.235Z,929.14
2019-02-10T01:23:10.151Z,929.13
2019-02-10T01:24:10.178Z,929.15
2019-02-10T01:25:10.246Z,929.16
2019-02-10T01:26:10.210Z,929.15
2019-02-10T01:27:10.315Z,929.16
2019-02-10T01:28:10.229Z,929.17
2019-02-10T01:29:10.230Z,929.20
2019-02-10T01:30:10.358Z,929.19
2019-02-10T01:31:10.262Z,929.22
2019-02-10T01:32:10.393Z,929.24
2019-02-10T01:33:10.405Z,929.28
2019-02-10T01:34:10.420Z,929.27
2019-02-10T01:35:10.439Z,929.28
2019-02-10T01:36:10.399Z,929.24
2019-02-10T01:37:10.369Z,929.31
2019-02-10T01:38:10.376Z,929.30
2019-02-10T01:39:10.399Z,929.35
2019-02-10T01:40:10.513Z,929.31
2019-02-10T01:41:10.679Z,929.31
2019-02-10T01:42:10.452Z,929.34
2019-02-10T01:43:10.460Z,929.34
2019-02-10T01:44:10.461Z,929.31
2019-02-10T01:45:10.474Z,929.27
2019-02-10T01:46:10.611Z,929.27
2019-02-10T01:47:10.636Z,929.28
2019-02-10T01:48:10.540Z,929.28
2019-02-10T01:49:10.545Z,929.29
2019-02-10T01:50:10.674Z,929.30
2019-02-10T01:51:10.719Z,929.29
2019-02-10T01:52:10.708Z,929.28
2019-02-10T01:53:10.593Z,929.26
2019-02-10T01:54:10.598Z,929.25
2019-02-10T01:55:10.638Z,929.24
2019-02-10T01:56:10.869Z,929.23
2019-02-10T01:57:10.787Z,929.24
2019-02-10T01:58:10.692Z,929.21
2019-02-10T01:59:10.694Z,929.22
2019-02-10T02:00:10.712Z,929.21
2019-02-10T02:02:10.761Z,929.23
2019-02-10T02:03:10.865Z,929.24
2019-02-10T02:04:10.750Z,929.24
2019-02-10T02:05:10.902Z,929.22
2019-02-10T02:06:11.011Z,929.27
2019-02-10T02:07:10.932Z,929.26
2019-02-10T02:08:10.950Z,929.28
2019-02-10T02:09:10.962Z,929.29
2019-02-10T02:10:10.976Z,929.30
2019-02-10T02:11:11.043Z,929.31
2019-02-10T02:12:10.907Z,929.33
2019-02-10T02:13:10.920Z,929.33
2019-02-10T02:14:10.909Z,929.36
2019-02-10T02:15:10.943Z,929.33
2019-02-10T02:16:11.056Z,929.30
2019-02-10T02:17:11.084Z,929.29
2019-02-10T02:18:11.004Z,929.31
2019-02-10T02:19:10.995Z,929.26
2019-02-10T02:21:11.140Z,929.28
2019-02-10T02:22:11.030Z,929.29
2019-02-10T02:23:11.173Z,929.30
2019-02-10T02:24:11.079Z,929.35
2019-02-10T02:25:11.095Z,929.36
2019-02-10T02:26:11.232Z,929.35
2019-02-10T02:27:11.248Z,929.34
2019-02-10T02:28:11.153Z,929.35
2019-02-10T02:29:11.170Z,929.35
2019-02-10T02:30:11.172Z,929.35
2019-02-10T02:31:11.343Z,929.37
2019-02-10T02:32:11.316Z,929.37
2019-02-10T02:33:11.334Z,929.34
2019-02-10T02:34:11.219Z,929.34
2019-02-10T02:35:11.363Z,929.28
2019-02-10T02:36:11.536Z,929.24
2019-02-10T02:37:11.401Z,929.21
2019-02-10T02:38:11.290Z,929.21
2019-02-10T02:39:11.306Z,929.20
2019-02-10T02:40:11.333Z,929.18
2019-02-10T02:41:11.560Z,929.19
2019-02-10T02:42:11.366Z,929.20
2019-02-10T02:43:11.487Z,929.22
2019-02-10T02:44:11.392Z,929.23
2019-02-10T02:45:11.539Z,929.25
2019-02-10T02:46:11.514Z,929.25
2019-02-10T02:47:11.544Z,929.24
2019-02-10T02:48:11.485Z,929.21
2019-02-10T02:49:11.448Z,929.21
2019-02-10T02:50:11.502Z,929.28
2019-02-10T02:51:11.600Z,929.27
2019-02-10T02:52:11.516Z,929.32
2019-02-10T02:53:11.637Z,929.36
2019-02-10T02:54:11.557Z,929.41
2019-02-10T02:55:11.568Z,929.45
2019-02-10T02:56:11.664Z,929.43
2019-02-10T02:57:11.592Z,929.46
2019-02-10T02:58:11.594Z,929.44
2019-02-10T02:59:11.624Z,929.44
2019-02-10T03:00:11.624Z,929.44
2019-02-10T03:01:11.756Z,929.43
2019-02-10T03:02:11.656Z,929.47
2019-02-10T03:03:11.806Z,929.46
2019-02-10T03:04:11.813Z,929.45
2019-02-10T03:05:11.825Z,929.48
2019-02-10T03:06:11.780Z,929.43
2019-02-10T03:07:17.829Z,929.47
2019-02-10T03:08:11.969Z,929.44
2019-02-10T03:09:11.895Z,929.49
2019-02-10T03:10:11.806Z,929.45
2019-02-10T03:11:11.806Z,929.46
2019-02-10T03:12:11.817Z,929.43
2019-02-10T03:13:11.997Z,929.43
2019-02-10T03:14:11.973Z,929.42
2019-02-10T03:15:11.986Z,929.41
2019-02-10T03:16:11.864Z,929.42
2019-02-10T03:17:12.112Z,929.43
2019-02-10T03:18:11.924Z,929.41
2019-02-10T03:19:12.045Z,929.41
2019-02-10T03:20:11.958Z,929.40
2019-02-10T03:21:11.970Z,929.46
2019-02-10T03:22:12.066Z,929.43
2019-02-10T03:23:11.987Z,929.40
2019-02-10T03:24:11.992Z,929.43
2019-02-10T03:25:12.029Z,929.44
2019-02-10T03:26:12.144Z,929.45
2019-02-10T03:27:12.158Z,929.43
2019-02-10T03:28:12.059Z,929.42
2019-02-10T03:29:12.192Z,929.36
2019-02-10T03:30:12.120Z,929.30
2019-02-10T03:31:12.231Z,929.27
2019-02-10T03:32:12.339Z,929.26
2019-02-10T03:33:12.150Z,929.21
2019-02-10T03:34:12.158Z,929.22
2019-02-10T03:35:12.174Z,929.23
2019-02-10T03:36:12.311Z,929.24
2019-02-10T03:37:12.198Z,929.26
2019-02-10T03:38:12.435Z,929.27
2019-02-10T03:39:12.239Z,929.29
2019-02-10T03:40:12.240Z,929.34
2019-02-10T03:41:12.266Z,929.31
2019-02-10T03:42:12.282Z,929.26
2019-02-10T03:43:12.348Z,929.27
2019-02-10T03:44:12.421Z,929.26
2019-02-10T03:45:12.440Z,929.19
2019-02-10T03:46:12.343Z,929.17
2019-02-10T03:47:12.479Z,929.19
2019-02-10T03:48:12.527Z,929.17
2019-02-10T03:49:12.391Z,929.20
2019-02-10T03:50:12.400Z,929.18
2019-02-10T03:51:12.539Z,929.18
2019-02-10T03:52:12.565Z,929.17
2019-02-10T03:53:12.615Z,929.11
2019-02-10T03:54:12.572Z,929.10
2019-02-10T03:55:12.596Z,929.05
2019-02-10T03:56:12.590Z,929.04
2019-02-10T03:57:12.510Z,929.06
2019-02-10T03:58:12.523Z,929.08
2019-02-10T03:59:12.541Z,929.10
2019-02-10T04:00:12.570Z,929.10
2019-02-10T04:01:12.782Z,929.13
2019-02-10T04:02:12.596Z,929.16
2019-02-10T04:03:12.711Z,929.16
2019-02-10T04:04:12.733Z,929.12
2019-02-10T04:05:12.634Z,929.16
2019-02-10T04:06:12.701Z,929.09
2019-02-10T04:07:12.663Z,929.11
2019-02-10T04:08:12.688Z,929.09
2019-02-10T04:09:12.731Z,929.06
2019-02-10T04:10:12.822Z,929.05
2019-02-10T04:11:12.723Z,929.07
2019-02-10T04:12:12.851Z,929.08
2019-02-10T04:13:12.866Z,929.11
2019-02-10T04:14:12.911Z,929.17
2019-02-10T04:15:12.782Z,929.14
2019-02-10T04:16:12.789Z,929.18
2019-02-10T04:17:12.821Z,929.20
2019-02-10T04:18:12.942Z,929.18
2019-02-10T04:19:12.850Z,929.14
2019-02-10T04:20:12.912Z,929.06
2019-02-10T04:21:12.880Z,929.04
2019-02-10T04:22:12.880Z,928.97
2019-02-10T04:23:13.026Z,929.02
2019-02-10T04:24:12.961Z,929.03
2019-02-10T04:25:13.199Z,929.02
2019-02-10T04:26:12.959Z,929.01
2019-02-10T04:27:13.072Z,929.00
2019-02-10T04:28:12.966Z,928.98
2019-02-10T04:29:13.006Z,928.99
2019-02-10T04:30:13.180Z,928.98
2019-02-10T04:31:13.027Z,928.90
2019-02-10T04:32:13.152Z,928.90
2019-02-10T04:33:13.166Z,928.87
2019-02-10T04:34:13.179Z,928.82
2019-02-10T04:35:13.245Z,928.77
2019-02-10T04:36:13.228Z,928.74
2019-02-10T04:37:13.103Z,928.74
2019-02-10T04:38:13.247Z,928.70
2019-02-10T04:39:13.257Z,928.68
2019-02-10T04:40:13.161Z,928.66
2019-02-10T04:41:13.234Z,928.66
2019-02-10T04:42:13.199Z,928.67
2019-02-10T04:43:13.202Z,928.66
2019-02-10T04:44:13.321Z,928.65
2019-02-10T04:45:13.248Z,928.64
2019-02-10T04:46:13.356Z,928.68
2019-02-10T04:47:13.382Z,928.67
2019-02-10T04:48:13.293Z,928.70
2019-02-10T04:49:13.454Z,928.72
2019-02-10T04:50:13.312Z,928.69
2019-02-10T04:51:13.319Z,928.71
2019-02-10T04:52:13.448Z,928.69
2019-02-10T04:53:13.574Z,928.61
2019-02-10T04:54:13.371Z,928.60
2019-02-10T04:55:13.443Z,928.58
2019-02-10T04:56:13.400Z,928.57
2019-02-10T04:57:13.392Z,928.54
2019-02-10T04:58:13.637Z,928.49
2019-02-10T04:59:13.438Z,928.45
2019-02-10T05:00:13.452Z,928.41
2019-02-10T05:01:13.468Z,928.42
2019-02-10T05:02:13.504Z,928.42
2019-02-10T05:03:13.510Z,928.43
2019-02-10T05:04:13.543Z,928.41
2019-02-10T05:05:13.643Z,928.44
2019-02-10T05:06:13.553Z,928.41
2019-02-10T05:07:13.605Z,928.42
2019-02-10T05:08:13.575Z,928.44
2019-02-10T05:09:13.851Z,928.44
2019-02-10T05:10:13.728Z,928.38
2019-02-10T05:11:13.648Z,928.40
2019-02-10T05:12:13.630Z,928.37
2019-02-10T05:13:13.652Z,928.34
2019-02-10T05:14:13.774Z,928.35
2019-02-10T05:15:13.801Z,928.33
2019-02-10T05:16:13.690Z,928.34
2019-02-10T05:17:13.743Z,928.34
2019-02-10T05:18:13.721Z,928.35
2019-02-10T05:19:13.956Z,928.36
2019-02-10T05:20:13.781Z,928.38
2019-02-10T05:21:13.884Z,928.34
2019-02-10T05:22:13.795Z,928.35
2019-02-10T05:23:13.822Z,928.28
2019-02-10T05:24:13.932Z,928.28
2019-02-10T05:25:13.818Z,928.23
2019-02-10T05:26:13.845Z,928.21
2019-02-10T05:27:13.874Z,928.23
2019-02-10T05:28:13.985Z,928.24
2019-02-10T05:29:13.963Z,928.25
2019-02-10T05:30:13.893Z,928.31
2019-02-10T05:31:13.927Z,928.32
2019-02-10T05:32:14.048Z,928.30
2019-02-10T05:33:13.933Z,928.32
2019-02-10T05:34:14.015Z,928.30
2019-02-10T05:35:13.974Z,928.30
2019-02-10T05:36:14.112Z,928.26
2019-02-10T05:37:14.117Z,928.29
2019-02-10T05:38:14.134Z,928.27
2019-02-10T05:39:14.150Z,928.23
2019-02-10T05:40:14.162Z,928.27
2019-02-10T05:41:14.067Z,928.25
2019-02-10T05:42:14.192Z,928.25
2019-02-10T05:43:14.094Z,928.27
2019-02-10T05:44:14.218Z,928.24
2019-02-10T05:45:14.237Z,928.25
2019-02-10T05:46:14.158Z,928.27
2019-02-10T05:47:14.142Z,928.30
2019-02-10T05:48:14.292Z,928.28
2019-02-10T05:49:14.345Z,928.31
2019-02-10T05:50:14.191Z,928.31
2019-02-10T05:51:14.327Z,928.31
2019-02-10T05:52:14.241Z,928.31
2019-02-10T05:53:14.366Z,928.30
2019-02-10T05:54:14.356Z,928.31
2019-02-10T05:55:14.289Z,928.32
2019-02-10T05:56:14.313Z,928.34
2019-02-10T05:57:14.302Z,928.31
2019-02-10T05:58:14.325Z,928.36
2019-02-10T05:59:14.440Z,928.36
2019-02-10T06:00:14.463Z,928.37
2019-02-10T06:01:14.345Z,928.34
2019-02-10T06:02:14.384Z,928.34
2019-02-10T06:03:14.393Z,928.39
2019-02-10T06:04:14.620Z,928.38
2019-02-10T06:05:14.473Z,928.37
2019-02-10T06:06:14.444Z,928.41
2019-02-10T06:07:16.457Z,928.40
2019-02-10T06:08:14.587Z,928.40
2019-02-10T06:09:14.706Z,928.44
2019-02-10T06:10:14.609Z,928.37
2019-02-10T06:11:14.514Z,928.38
2019-02-10T06:12:14.529Z,928.38
2019-02-10T06:13:14.549Z,928.39
2019-02-10T06:14:14.648Z,928.39
2019-02-10T06:15:14.686Z,928.37
2019-02-10T06:16:14.590Z,928.38
2019-02-10T06:17:14.717Z,928.35
2019-02-10T06:18:14.611Z,928.35
2019-02-10T06:19:14.903Z,928.36
2019-02-10T06:20:14.654Z,928.35
2019-02-10T06:21:14.769Z,928.33
2019-02-10T06:22:14.791Z,928.29
2019-02-10T06:23:14.697Z,928.31
2019-02-10T06:24:14.750Z,928.32
2019-02-10T06:25:14.726Z,928.31
2019-02-10T06:26:14.734Z,928.29
2019-02-10T06:27:14.761Z,928.29
2019-02-10T06:28:14.902Z,928.28
2019-02-10T06:29:14.789Z,928.30
2019-02-10T06:30:14.909Z,928.26
2019-02-10T06:31:14.825Z,928.29
2019-02-10T06:32:14.822Z,928.27
2019-02-10T06:33:15.043Z,928.30
2019-02-10T06:34:14.958Z,928.29
2019-02-10T06:35:14.984Z,928.31
2019-02-10T06:36:16.723Z,928.34
2019-02-10T06:37:14.890Z,928.34
2019-02-10T06:38:22.317Z,928.33
2019-02-10T06:39:14.925Z,928.34
2019-02-10T06:40:15.048Z,928.32
2019-02-10T06:41:15.063Z,928.33
2019-02-10T06:42:14.956Z,928.27
2019-02-10T06:43:15.119Z,928.21
2019-02-10T06:44:15.112Z,928.17
2019-02-10T06:45:14.991Z,928.20
2019-02-10T06:46:15.034Z,928.20
2019-02-10T06:47:15.151Z,928.23
2019-02-10T06:48:15.156Z,928.22
2019-02-10T06:49:15.068Z,928.27
2019-02-10T06:50:15.083Z,928.29
2019-02-10T06:51:15.101Z,928.26
2019-02-10T06:52:15.223Z,928.21
2019-02-10T06:53:15.224Z,928.22
2019-02-10T06:54:15.251Z,928.21
2019-02-10T06:55:15.153Z,928.21
2019-02-10T06:56:15.174Z,928.19
2019-02-10T06:57:15.293Z,928.19
2019-02-10T06:58:15.266Z,928.18
2019-02-10T06:59:15.328Z,928.22
2019-02-10T07:00:15.233Z,928.19
2019-02-10T07:01:15.234Z,928.19
2019-02-10T07:02:15.263Z,928.20
2019-02-10T07:03:15.368Z,928.21
2019-02-10T07:04:15.276Z,928.13
2019-02-10T07:05:15.411Z,928.16
2019-02-10T07:06:15.332Z,928.12
2019-02-10T07:07:15.443Z,928.08
2019-02-10T07:08:15.437Z,928.12
2019-02-10T07:09:15.350Z,928.12
2019-02-10T07:10:15.459Z,928.14
2019-02-10T07:11:15.398Z,928.12
2019-02-10T07:12:15.513Z,928.14
2019-02-10T07:13:15.683Z,928.13
2019-02-10T07:14:15.547Z,928.14
2019-02-10T07:15:15.557Z,928.12
2019-02-10T07:16:15.571Z,928.08
2019-02-10T07:17:15.583Z,928.08
2019-02-10T07:18:15.593Z,928.06
2019-02-10T07:19:15.523Z,928.04
2019-02-10T07:20:15.524Z,928.09
2019-02-10T07:21:15.599Z,928.09
2019-02-10T07:22:15.663Z,928.09
2019-02-10T07:23:15.734Z,928.04
2019-02-10T07:24:15.697Z,928.08
2019-02-10T07:25:15.645Z,928.07
2019-02-10T07:26:15.594Z,928.09
2019-02-10T07:27:15.640Z,928.07
2019-02-10T07:28:15.809Z,928.08
2019-02-10T07:29:15.653Z,928.11
2019-02-10T07:30:15.776Z,928.12
2019-02-10T07:31:15.676Z,928.09
2019-02-10T07:32:15.707Z,928.09
2019-02-10T07:33:15.877Z,928.07
2019-02-10T07:34:15.733Z,928.03
2019-02-10T07:35:15.741Z,928.01
2019-02-10T07:36:15.731Z,927.98
2019-02-10T07:37:15.877Z,927.99
2019-02-10T07:38:15.940Z,928.01
2019-02-10T07:39:15.909Z,928.05
2019-02-10T07:40:15.799Z,928.09
2019-02-10T07:41:15.828Z,928.07
2019-02-10T07:42:17.296Z,928.10
2019-02-10T07:43:15.959Z,928.10
2019-02-10T07:44:15.868Z,928.10
2019-02-10T07:45:15.993Z,928.09
2019-02-10T07:46:15.891Z,928.08
2019-02-10T07:47:15.891Z,928.06
2019-02-10T07:48:16.023Z,928.07
2019-02-10T07:49:15.980Z,928.04
2019-02-10T07:50:16.063Z,928.05
2019-02-10T07:51:15.979Z,928.04
2019-02-10T07:52:15.984Z,928.06
2019-02-10T07:53:16.022Z,928.12
2019-02-10T07:54:16.013Z,928.10
2019-02-10T07:55:16.021Z,928.11
2019-02-10T07:56:16.151Z,928.14
2019-02-10T07:57:16.046Z,928.15
2019-02-10T07:58:16.281Z,928.20
2019-02-10T07:59:16.196Z,928.20
2019-02-10T08:00:16.086Z,928.22
2019-02-10T08:01:16.172Z,928.23
2019-02-10T08:02:16.125Z,928.23
2019-02-10T08:03:16.144Z,928.22
2019-02-10T08:04:16.249Z,928.19
2019-02-10T08:05:16.277Z,928.21
2019-02-10T08:06:16.188Z,928.18
2019-02-10T08:07:16.243Z,928.15
2019-02-10T08:08:16.221Z,928.15
2019-02-10T08:09:16.330Z,928.18
2019-02-10T08:10:16.237Z,928.19
2019-02-10T08:11:16.376Z,928.26
2019-02-10T08:12:16.267Z,928.25
2019-02-10T08:13:16.403Z,928.28
2019-02-10T08:14:16.345Z,928.25
2019-02-10T08:15:16.430Z,928.25
2019-02-10T08:16:16.335Z,928.25
2019-02-10T08:17:16.452Z,928.25
2019-02-10T08:18:16.352Z,928.30
2019-02-10T08:19:16.530Z,928.25
2019-02-10T08:20:16.495Z,928.27
2019-02-10T08:21:16.386Z,928.33
2019-02-10T08:22:16.436Z,928.35
2019-02-10T08:23:16.416Z,928.35
2019-02-10T08:24:16.550Z,928.34
2019-02-10T08:25:16.568Z,928.32
2019-02-10T08:26:16.447Z,928.34
2019-02-10T08:27:16.601Z,928.32
2019-02-10T08:28:16.492Z,928.31
2019-02-10T08:29:16.629Z,928.32
2019-02-10T08:30:16.524Z,928.30
2019-02-10T08:31:16.556Z,928.32
2019-02-10T08:32:16.669Z,928.35
2019-02-10T08:33:16.678Z,928.38
2019-02-10T08:34:16.695Z,928.38
2019-02-10T08:35:16.602Z,928.37
2019-02-10T08:36:16.723Z,928.39
2019-02-10T08:37:16.616Z,928.42
2019-02-10T08:38:16.764Z,928.39
2019-02-10T08:39:16.875Z,928.40
2019-02-10T08:40:16.682Z,928.43
2019-02-10T08:41:16.790Z,928.43
2019-02-10T08:42:16.704Z,928.39
2019-02-10T08:43:16.822Z,928.41
2019-02-10T08:44:16.936Z,928.41
2019-02-10T08:45:16.850Z,928.44
2019-02-10T08:46:16.876Z,928.45
2019-02-10T08:47:16.879Z,928.44
2019-02-10T08:48:16.784Z,928.44
2019-02-10T08:49:16.890Z,928.44
2019-02-10T08:50:16.932Z,928.42
2019-02-10T08:51:16.850Z,928.43
2019-02-10T08:52:16.857Z,928.40
2019-02-10T08:53:16.851Z,928.44
2019-02-10T08:54:17.086Z,928.42
2019-02-10T08:55:16.879Z,928.46
2019-02-10T08:56:17.011Z,928.48
2019-02-10T08:57:17.022Z,928.49
2019-02-10T08:58:16.933Z,928.49
2019-02-10T08:59:17.081Z,928.49
2019-02-10T09:00:17.061Z,928.50
2019-02-10T09:01:16.998Z,928.51
2019-02-10T09:02:16.981Z,928.50
2019-02-10T09:03:19.508Z,928.50
2019-02-10T09:04:17.132Z,928.49
2019-02-10T09:05:17.139Z,928.51
2019-02-10T09:06:17.016Z,928.54
2019-02-10T09:07:17.060Z,928.61
2019-02-10T09:08:17.180Z,928.60
2019-02-10T09:09:17.242Z,928.62
2019-02-10T09:10:17.094Z,928.63
2019-02-10T09:11:17.114Z,928.68
2019-02-10T09:12:17.118Z,928.68
2019-02-10T09:13:17.131Z,928.72
2019-02-10T09:14:17.287Z,928.66
2019-02-10T09:15:17.173Z,928.67
2019-02-10T09:16:17.297Z,928.66
2019-02-10T09:17:17.318Z,928.70
2019-02-10T09:18:17.203Z,928.70
2019-02-10T09:19:17.289Z,928.71
2019-02-10T09:20:17.257Z,928.71
2019-02-10T09:21:17.303Z,928.71
2019-02-10T09:22:17.387Z,928.73
2019-02-10T09:23:17.304Z,928.75
2019-02-10T09:24:17.478Z,928.72
2019-02-10T09:25:17.361Z,928.77
2019-02-10T09:26:17.335Z,928.76
2019-02-10T09:27:17.445Z,928.79
2019-02-10T09:28:17.484Z,928.82
2019-02-10T09:29:17.501Z,928.79
2019-02-10T09:30:17.519Z,928.81
2019-02-10T09:31:17.405Z,928.83
2019-02-10T09:32:17.547Z,928.90
2019-02-10T09:33:17.470Z,928.89
2019-02-10T09:34:17.462Z,928.95
2019-02-10T09:35:17.496Z,928.93
2019-02-10T09:36:17.546Z,928.98
2019-02-10T09:37:17.553Z,928.94
2019-02-10T09:38:17.547Z,928.97
2019-02-10T09:39:17.674Z,928.97
2019-02-10T09:40:17.687Z,929.00
2019-02-10T09:41:17.621Z,929.00
2019-02-10T09:42:17.876Z,928.98
2019-02-10T09:43:17.744Z,929.03
2019-02-10T09:44:17.627Z,929.02
2019-02-10T09:45:17.677Z,929.02
2019-02-10T09:46:17.704Z,929.03
2019-02-10T09:47:17.830Z,929.05
2019-02-10T09:48:17.735Z,929.12
2019-02-10T09:49:17.749Z,929.07
2019-02-10T09:50:17.871Z,929.07
2019-02-10T09:51:17.781Z,929.09
2019-02-10T09:52:17.905Z,929.09
2019-02-10T09:53:17.926Z,929.10
2019-02-10T09:54:17.953Z,929.08
2019-02-10T09:55:17.838Z,929.07
2019-02-10T09:56:17.919Z,929.05
2019-02-10T09:57:17.991Z,929.02
2019-02-10T09:58:18.023Z,929.04
2019-02-10T09:59:17.971Z,929.02
2019-02-10T10:00:17.932Z,929.04
2019-02-10T10:01:17.949Z,929.07
2019-02-10T10:02:18.024Z,929.07
2019-02-10T10:03:18.009Z,929.04
2019-02-10T10:04:18.035Z,929.07
2019-02-10T10:05:18.042Z,929.07
2019-02-10T10:06:18.326Z,929.07
2019-02-10T10:07:18.078Z,929.06
2019-02-10T10:08:18.073Z,929.03
2019-02-10T10:09:19.636Z,929.10
2019-02-10T10:10:18.107Z,929.11
2019-02-10T10:11:18.233Z,929.15
2019-02-10T10:12:18.213Z,929.14
2019-02-10T10:13:18.248Z,929.13
2019-02-10T10:14:19.708Z,929.19
2019-02-10T10:15:18.223Z,929.23
2019-02-10T10:16:18.514Z,929.24
2019-02-10T10:17:18.378Z,929.28
2019-02-10T10:18:18.280Z,929.28
2019-02-10T10:19:18.419Z,929.28
2019-02-10T10:20:18.449Z,929.30
2019-02-10T10:21:18.443Z,929.34
2019-02-10T10:22:18.358Z,929.32
2019-02-10T10:23:18.381Z,929.34
2019-02-10T10:24:18.463Z,929.35
2019-02-10T10:25:18.536Z,929.35
2019-02-10T10:26:18.541Z,929.29
2019-02-10T10:27:18.455Z,929.30
2019-02-10T10:28:18.492Z,929.26
2019-02-10T10:29:18.505Z,929.28
2019-02-10T10:30:18.637Z,929.27
2019-02-10T10:31:18.592Z,929.29
2019-02-10T10:32:18.569Z,929.32
2019-02-10T10:33:18.700Z,929.32
2019-02-10T10:34:18.616Z,929.30
2019-02-10T10:35:18.625Z,929.33
2019-02-10T10:36:18.727Z,929.31
2019-02-10T10:37:18.676Z,929.38
2019-02-10T10:38:18.807Z,929.34
2019-02-10T10:39:26.907Z,929.34
2019-02-10T10:40:18.760Z,929.36
2019-02-10T10:41:18.930Z,929.35
2019-02-10T10:42:18.844Z,929.34
2019-02-10T10:43:18.803Z,929.35
2019-02-10T10:44:18.829Z,929.32
2019-02-10T10:45:18.931Z,929.34
2019-02-10T10:46:18.871Z,929.35
2019-02-10T10:47:18.894Z,929.38
2019-02-10T10:48:18.924Z,929.35
2019-02-10T10:49:19.046Z,929.38
2019-02-10T10:50:19.121Z,929.35
2019-02-10T10:51:18.961Z,929.33
2019-02-10T10:52:19.116Z,929.32
2019-02-10T10:53:19.137Z,929.31
2019-02-10T10:54:19.160Z,929.32
2019-02-10T10:55:19.290Z,929.30
2019-02-10T10:56:19.213Z,929.33
2019-02-10T10:57:19.233Z,929.32
2019-02-10T10:58:19.256Z,929.32
2019-02-10T10:59:19.283Z,929.31
2019-02-10T11:00:19.471Z,929.31
2019-02-10T11:01:25.179Z,929.35
2019-02-10T11:02:19.252Z,929.37
2019-02-10T11:03:19.270Z,929.38
2019-02-10T11:04:19.290Z,929.34
2019-02-10T11:05:19.589Z,929.32
2019-02-10T11:06:19.354Z,929.37
2019-02-10T11:07:19.368Z,929.32
2019-02-10T11:08:19.386Z,929.31
2019-02-10T11:09:19.410Z,929.29
2019-02-10T11:10:19.705Z,929.33
2019-02-10T11:11:19.531Z,929.34
2019-02-10T11:12:19.539Z,929.33
2019-02-10T11:13:19.522Z,929.37
2019-02-10T11:14:19.517Z,929.33
2019-02-10T11:15:19.608Z,929.30
2019-02-10T11:16:19.580Z,929.32
2019-02-10T11:17:19.738Z,929.30
2019-02-10T11:18:19.648Z,929.36
2019-02-10T11:19:19.685Z,929.41
2019-02-10T11:20:19.738Z,929.35
2019-02-10T11:21:19.705Z,929.37
2019-02-10T11:22:19.865Z,929.37
2019-02-10T11:23:19.766Z,929.40
2019-02-10T11:24:19.927Z,929.41
2019-02-10T11:25:19.875Z,929.42
2019-02-10T11:26:19.853Z,929.41
2019-02-10T11:27:19.870Z,929.47
2019-02-10T11:28:20.020Z,929.47
2019-02-10T11:29:20.042Z,929.42
2019-02-10T11:30:20.071Z,929.42
2019-02-10T11:31:19.998Z,929.41
2019-02-10T11:32:20.126Z,929.46
2019-02-10T11:33:20.152Z,929.46
2019-02-10T11:34:20.060Z,929.47
2019-02-10T11:35:20.259Z,929.48
2019-02-10T11:36:20.112Z,929.50
2019-02-10T11:37:26.770Z,929.53
2019-02-10T11:38:20.167Z,929.55
2019-02-10T11:39:20.205Z,929.56
2019-02-10T11:40:20.312Z,929.51
2019-02-10T11:41:20.259Z,929.51
2019-02-10T11:42:20.395Z,929.49
2019-02-10T11:43:20.313Z,929.49
2019-02-10T11:44:20.338Z,929.48
2019-02-10T11:45:20.581Z,929.48
2019-02-10T11:46:20.418Z,929.52
2019-02-10T11:47:20.538Z,929.53
2019-02-10T11:48:20.448Z,929.52
2019-02-10T11:49:20.487Z,929.57
2019-02-10T11:50:20.648Z,929.58
2019-02-10T11:51:20.533Z,929.61
2019-02-10T11:52:20.678Z,929.60
2019-02-10T11:53:20.571Z,929.54
2019-02-10T11:54:20.633Z,929.58
2019-02-10T11:55:20.696Z,929.58
2019-02-10T11:56:20.658Z,929.61
2019-02-10T11:57:20.700Z,929.58
2019-02-10T11:58:20.749Z,929.59
2019-02-10T11:59:20.761Z,929.59
2019-02-10T12:00:20.923Z,929.57
2019-02-10T12:01:20.928Z,929.53
2019-02-10T12:02:20.958Z,929.52
2019-02-10T12:03:20.869Z,929.57
2019-02-10T12:04:20.912Z,929.58
2019-02-10T12:05:21.072Z,929.58
2019-02-10T12:06:20.955Z,929.59
2019-02-10T12:07:20.973Z,929.56
2019-02-10T12:08:21.007Z,929.58
2019-02-10T12:09:21.160Z,929.72
2019-02-10T12:10:21.173Z,929.92
2019-02-10T12:11:21.112Z,929.90
2019-02-10T12:12:21.137Z,929.90
2019-02-10T12:13:21.271Z,929.90
2019-02-10T12:14:21.200Z,929.97
2019-02-10T12:15:21.330Z,929.94
2019-02-10T12:16:21.254Z,929.71
2019-02-10T12:17:21.296Z,929.58
2019-02-10T12:18:21.303Z,929.63
2019-02-10T12:19:21.360Z,929.60
2019-02-10T12:20:21.633Z,929.65
2019-02-10T12:21:21.386Z,929.68
2019-02-10T12:22:21.538Z,929.87
2019-02-10T12:23:21.438Z,929.79
2019-02-10T12:24:21.483Z,929.76
2019-02-10T12:25:21.609Z,929.70
2019-02-10T12:26:21.565Z,929.68
2019-02-10T12:27:21.577Z,929.68
2019-02-10T12:28:21.609Z,929.74
2019-02-10T12:29:21.748Z,929.78
2019-02-10T12:30:21.870Z,929.81